This is the latest recevied weather packets stored in our database for station/object KG5WBN. If no packets are shown the sender has not sent any weather packets the latest 10 day(s).
| Time | Temp. | Humidity | Pressure | Rain* | Wind** | Luminosity | Snow |
|---|---|---|---|---|---|---|---|
| 1787689646 | 30.56° C | 51% | 1014.6 hPa | 0 mm | - | 111 W/m² | - |
| 1787689342 | 31.11° C | 51% | 1014.6 hPa | 0 mm | - | 125 W/m² | - |
| 1787689041 | 32.78° C | 44% | 1014.6 hPa | 0 mm | - | 118 W/m² | - |
| 1787688738 | 33.33° C | 44% | 1014.6 hPa | 0 mm | - | 160 W/m² | - |
| 1787688432 | 33.89° C | 43% | 1014.6 hPa | 0 mm | - | 162 W/m² | - |
| 1787688127 | 35° C | 42% | 1014.6 hPa | 0 mm | - | 374 W/m² | - |
| 1787687823 | 35° C | 42% | 1014.6 hPa | 0 mm | - | 463 W/m² | - |
| 1787687523 | 33.89° C | 43% | 1014.6 hPa | 0 mm | - | 336 W/m² | - |
| 1787687219 | 35° C | 42% | 1014.6 hPa | 0 mm | - | 277 W/m² | - |
| 1787686914 | 35° C | 42% | 1014.6 hPa | 0 mm | - | 246 W/m² | - |
| 1787686611 | 34.44° C | 42% | 1014.2 hPa | 0 mm | - | 413 W/m² | - |
| 1787686306 | 35° C | 42% | 1014.6 hPa | 0 mm | - | 308 W/m² | - |
| 1787686001 | 35° C | 42% | 1014.6 hPa | 0 mm | - | 397 W/m² | - |
| 1787685698 | 33.89° C | 46% | 1014.6 hPa | 0 mm | - | 384 W/m² | - |
| 1787685396 | 33.89° C | 43% | 1014.9 hPa | 0 mm | - | 394 W/m² | - |
| 1787685091 | 33.89° C | 43% | 1014.9 hPa | 0 mm | - | 396 W/m² | - |
| 1787684787 | 33.89° C | 50% | 1014.9 hPa | 0 mm | - | 378 W/m² | - |
| 1787684486 | 32.78° C | 52% | 1014.9 hPa | 0 mm | - | 320 W/m² | - |
| 1787684181 | 33.89° C | 43% | 1014.9 hPa | 0 mm | - | 134 W/m² | - |
| 1787683881 | 33.33° C | 45% | 1015.2 hPa | 0 mm | - | 387 W/m² | - |
| 1787683576 | 33.89° C | 43% | 1015.2 hPa | 0 mm | - | 380 W/m² | - |
| 1787683271 | 33.89° C | 43% | 1015.2 hPa | 0 mm | - | 394 W/m² | - |
| 1787682968 | 33.33° C | 45% | 1015.2 hPa | 0 mm | - | 317 W/m² | - |
| 1787682664 | 34.44° C | 42% | 1015.6 hPa | 0 mm | - | 437 W/m² | - |
| 1787682359 | 33.89° C | 43% | 1015.6 hPa | 0 mm | - | 395 W/m² | - |
* Rain latest hour (hover to see other rain measurements)
** Current wind speed in m/s (hover to see current wind gust speed)